»·PEaware :: N70EU KTEX-KAPA

N70EU :: KTEX-KAPA

FLIGHT INFORMATION

Flight Status: Arrived
Operator: Privately registered:
United States
More flights under this callsign
Pilot: Anonymous 33184 (33184)
Aircraft: BEECH AIRCRAFT SUPER KING AIR 350
(B350)
More flights by this aircraft type
Origin: KTEX Telluride Regl
United States
Destination: KAPA Centennial
United States
More flights between these airports :: More routes between these airports
Route: ETL LARKS LARKS2
File this flight plan on PilotEdge
Remarks: XP11 Default Scenery
Altitude:
(Current/Filed)
21,000ft
Speed:
(Current/Filed)
219kts
Departed: 07-Aug-23 08:00 PM
Arrived: 07-Aug-23 08:58 PM
Distance/Time
Traveled:
173nm/0:58
Distance/Time
To Go:
Arrived

Flight Plot

Page will automatically refresh every two minutes.

Flight plan parsing failed; only flown route is shown


Map Options




Map Legend


Flown Route
Filed Route
Departure Airport
Arrival Airport
Navaid (VOR, NDB)
Fix

Horizontal Profiles

Position Reports

Time Latitude Longitude Heading Altitude Ground
Speed
07-Aug-23 19:23 37.954033 -107.902787 106 9059ft 0kts
07-Aug-23 19:24 37.954033 -107.902787 106 9059ft 0kts
07-Aug-23 19:25 37.954033 -107.902787 106 9059ft 0kts
07-Aug-23 19:26 37.954033 -107.902787 106 9059ft 0kts
07-Aug-23 19:27 37.954033 -107.902787 106 9059ft 0kts
07-Aug-23 19:28 37.954033 -107.902787 106 9059ft 0kts
07-Aug-23 19:29 37.954033 -107.902787 106 9059ft 0kts
07-Aug-23 19:30 37.954033 -107.902787 106 9059ft 0kts
07-Aug-23 19:31 37.954033 -107.902787 106 9059ft 0kts
07-Aug-23 19:32 37.954033 -107.902787 106 9059ft 0kts
07-Aug-23 19:33 37.953520 -107.901958 105 9060ft 5kts
07-Aug-23 19:34 37.953172 -107.899618 58 9071ft 7kts
07-Aug-23 19:35 37.953210 -107.899098 188 9075ft 0kts
07-Aug-23 19:36 37.953210 -107.899098 188 9075ft 0kts
07-Aug-23 19:37 37.953210 -107.899098 188 9075ft 0kts
07-Aug-23 19:38 37.953210 -107.899098 188 9075ft 0kts
07-Aug-23 19:39 37.953210 -107.899098 188 9075ft 0kts
07-Aug-23 19:40 37.953210 -107.899098 188 9075ft 0kts
07-Aug-23 19:41 37.953210 -107.899098 188 9075ft 0kts
07-Aug-23 19:42 37.953210 -107.899098 188 9075ft 0kts
07-Aug-23 19:43 37.953210 -107.899098 188 9075ft 0kts
07-Aug-23 19:44 37.953210 -107.899098 188 9075ft 0kts
07-Aug-23 19:45 37.953210 -107.899098 188 9075ft 0kts
07-Aug-23 19:46 37.953210 -107.899098 188 9075ft 0kts
07-Aug-23 19:47 37.953210 -107.899098 188 9075ft 0kts
07-Aug-23 19:48 37.953210 -107.899098 188 9075ft 0kts
07-Aug-23 19:49 37.953210 -107.899098 188 9075ft 0kts
07-Aug-23 19:50 37.953210 -107.899098 188 9075ft 0kts
07-Aug-23 19:51 37.953210 -107.899098 188 9075ft 0kts
07-Aug-23 19:52 37.953210 -107.899098 188 9075ft 0kts
07-Aug-23 19:53 37.952810 -107.898595 104 9074ft 8kts
07-Aug-23 19:54 37.952330 -107.896704 144 9084ft 0kts
07-Aug-23 19:55 37.952330 -107.896704 144 9084ft 0kts
07-Aug-23 19:56 37.952330 -107.896704 144 9084ft 0kts
07-Aug-23 19:57 37.952288 -107.896668 149 9084ft 3kts
07-Aug-23 19:58 37.951374 -107.897168 285 9067ft 0kts
07-Aug-23 19:59 37.951777 -107.899034 285 9056ft 56kts
07-Aug-23 20:00 37.959444 -107.939780 280 9452ft 138kts
07-Aug-23 20:01 37.967548 -107.996150 280 10370ft 177kts
07-Aug-23 20:02 37.978582 -108.054808 285 11901ft 158kts
07-Aug-23 20:03 37.989327 -108.108736 289 13163ft 163kts
07-Aug-23 20:04 38.015851 -108.155003 287 14647ft 163kts
07-Aug-23 20:05 38.029898 -108.210494 288 16053ft 165kts
07-Aug-23 20:06 38.068419 -108.197586 41 17578ft 187kts
07-Aug-23 20:07 38.096546 -108.138718 60 18947ft 200kts
07-Aug-23 20:08 38.121635 -108.075497 58 20382ft 204kts
07-Aug-23 20:09 38.149476 -108.012928 55 21480ft 205kts
07-Aug-23 20:10 38.180029 -107.942837 57 21450ft 233kts
07-Aug-23 20:11 38.210559 -107.871065 56 21445ft 230kts
07-Aug-23 20:12 38.241036 -107.799285 56 21448ft 231kts
07-Aug-23 20:13 38.271656 -107.727000 56 21406ft 236kts
07-Aug-23 20:14 38.302987 -107.652848 56 21349ft 240kts
07-Aug-23 20:15 38.334822 -107.577333 57 21292ft 244kts
07-Aug-23 20:16 38.367275 -107.500173 57 21235ft 248kts
07-Aug-23 20:17 38.399787 -107.422668 57 21165ft 247kts
07-Aug-23 20:18 38.431157 -107.347692 57 21161ft 233kts
07-Aug-23 20:19 38.461352 -107.275397 57 21161ft 230kts
07-Aug-23 20:20 38.491422 -107.203213 57 21163ft 230kts
07-Aug-23 20:21 38.521501 -107.130834 57 21163ft 231kts
07-Aug-23 20:22 38.551496 -107.058496 57 21163ft 231kts
07-Aug-23 20:23 38.581475 -106.986006 57 21226ft 230kts
07-Aug-23 20:24 38.611299 -106.913758 57 21336ft 229kts
07-Aug-23 20:25 38.640956 -106.841719 56 21444ft 229kts
07-Aug-23 20:26 38.670651 -106.769450 56 21523ft 230kts
07-Aug-23 20:27 38.700425 -106.696789 56 21523ft 231kts
07-Aug-23 20:28 38.730320 -106.623681 56 21522ft 232kts
07-Aug-23 20:29 38.760119 -106.550624 56 21523ft 232kts
07-Aug-23 20:30 38.789933 -106.477361 56 21523ft 231kts
07-Aug-23 20:31 38.819615 -106.404252 56 21524ft 231kts
07-Aug-23 20:32 38.849360 -106.330813 57 21515ft 232kts
07-Aug-23 20:33 38.878997 -106.257468 56 21518ft 231kts
07-Aug-23 20:34 38.908584 -106.184071 57 21508ft 231kts
07-Aug-23 20:35 38.938016 -106.110872 56 21504ft 231kts
07-Aug-23 20:36 38.967581 -106.037171 56 21451ft 233kts
07-Aug-23 20:37 38.997362 -105.962747 56 21358ft 234kts
07-Aug-23 20:38 39.027091 -105.888293 55 21277ft 234kts
07-Aug-23 20:39 39.057287 -105.812531 56 20634ft 249kts
07-Aug-23 20:40 39.090371 -105.729212 57 18975ft 273kts
07-Aug-23 20:41 39.125727 -105.639931 57 17255ft 285kts
07-Aug-23 20:42 39.160069 -105.552894 57 16960ft 259kts
07-Aug-23 20:43 39.191359 -105.473482 56 16965ft 240kts
07-Aug-23 20:44 39.220593 -105.399087 56 16966ft 225kts
07-Aug-23 20:45 39.248302 -105.328477 57 16780ft 226kts
07-Aug-23 20:46 39.287180 -105.258561 45 15425ft 255kts
07-Aug-23 20:47 39.333254 -105.186301 46 13969ft 261kts
07-Aug-23 20:48 39.378882 -105.114588 47 12469ft 254kts
07-Aug-23 20:49 39.422696 -105.045574 48 10969ft 244kts
07-Aug-23 20:50 39.464690 -104.979274 49 9470ft 232kts
07-Aug-23 20:51 39.504377 -104.916504 51 7950ft 221kts
07-Aug-23 20:52 39.548612 -104.888461 352 7685ft 184kts
07-Aug-23 20:53 39.598760 -104.896126 0 7885ft 159kts
07-Aug-23 20:54 39.640768 -104.892176 63 6926ft 146kts
07-Aug-23 20:55 39.618753 -104.857819 136 6670ft 136kts
07-Aug-23 20:56 39.586980 -104.851641 177 5979ft 111kts
07-Aug-23 20:57 39.569494 -104.850238 147 5889ft 15kts
07-Aug-23 20:58 39.568730 -104.849617 146 5889ft 0kts
07-Aug-23 20:59 39.568730 -104.849617 146 5889ft 0kts
07-Aug-23 21:00 39.568642 -104.849114 66 5889ft 4kts
07-Aug-23 21:01 39.571351 -104.848733 72 5889ft 8kts
07-Aug-23 21:02 39.570968 -104.847551 178 5889ft 0kts
07-Aug-23 21:03 39.570968 -104.847551 178 5889ft 0kts
07-Aug-23 21:04 39.570968 -104.847551 178 5889ft 0kts
07-Aug-23 21:05 39.570968 -104.847551 178 5889ft 0kts
07-Aug-23 21:06 39.570969 -104.847551 178 5889ft 0kts

Navigation Log

Ident Type
Flight plan parsing failed, navigation log unavailable